sensor_id;sensor_type;location;lat;lon;timestamp;P1;durP1;ratioP1;P2;durP2;ratioP2
64297;SDS011;50639;53.270;7.956;2022-12-24T00:02:06;13.50;;;7.70;;
64297;SDS011;50639;53.270;7.956;2022-12-24T00:04:31;12.95;;;7.07;;
64297;SDS011;50639;53.270;7.956;2022-12-24T00:06:57;12.82;;;7.78;;
64297;SDS011;50639;53.270;7.956;2022-12-24T00:09:22;15.20;;;7.55;;
64297;SDS011;50639;53.270;7.956;2022-12-24T00:11:47;14.60;;;8.20;;
64297;SDS011;50639;53.270;7.956;2022-12-24T00:14:12;13.15;;;7.55;;
64297;SDS011;50639;53.270;7.956;2022-12-24T00:16:38;14.85;;;9.25;;
64297;SDS011;50639;53.270;7.956;2022-12-24T00:19:03;16.65;;;8.85;;
64297;SDS011;50639;53.270;7.956;2022-12-24T00:21:28;14.63;;;8.15;;
64297;SDS011;50639;53.270;7.956;2022-12-24T00:23:54;12.98;;;8.52;;
64297;SDS011;50639;53.270;7.956;2022-12-24T00:26:19;13.45;;;8.25;;
64297;SDS011;50639;53.270;7.956;2022-12-24T00:28:44;16.00;;;8.23;;
64297;SDS011;50639;53.270;7.956;2022-12-24T00:31:14;11.85;;;7.63;;
64297;SDS011;50639;53.270;7.956;2022-12-24T00:33:40;13.88;;;8.10;;
64297;SDS011;50639;53.270;7.956;2022-12-24T00:36:05;11.70;;;8.00;;
64297;SDS011;50639;53.270;7.956;2022-12-24T00:38:31;14.73;;;9.18;;
64297;SDS011;50639;53.270;7.956;2022-12-24T00:43:43;15.25;;;9.30;;
64297;SDS011;50639;53.270;7.956;2022-12-24T00:46:08;13.90;;;8.25;;
64297;SDS011;50639;53.270;7.956;2022-12-24T00:48:33;13.07;;;8.68;;
64297;SDS011;50639;53.270;7.956;2022-12-24T00:50:58;14.02;;;7.75;;
64297;SDS011;50639;53.270;7.956;2022-12-24T00:53:24;13.00;;;7.82;;
64297;SDS011;50639;53.270;7.956;2022-12-24T00:55:49;15.13;;;8.37;;
64297;SDS011;50639;53.270;7.956;2022-12-24T00:58:15;12.32;;;8.32;;
64297;SDS011;50639;53.270;7.956;2022-12-24T01:00:40;13.38;;;8.60;;
64297;SDS011;50639;53.270;7.956;2022-12-24T01:03:05;14.25;;;9.90;;
64297;SDS011;50639;53.270;7.956;2022-12-24T01:05:30;15.02;;;8.57;;
64297;SDS011;50639;53.270;7.956;2022-12-24T01:07:56;11.90;;;7.65;;
64297;SDS011;50639;53.270;7.956;2022-12-24T01:10:21;12.07;;;8.50;;
64297;SDS011;50639;53.270;7.956;2022-12-24T01:12:46;14.13;;;8.18;;
64297;SDS011;50639;53.270;7.956;2022-12-24T01:15:12;12.32;;;8.23;;
64297;SDS011;50639;53.270;7.956;2022-12-24T01:17:38;11.73;;;7.97;;
64297;SDS011;50639;53.270;7.956;2022-12-24T01:20:04;13.25;;;8.20;;
64297;SDS011;50639;53.270;7.956;2022-12-24T01:22:30;13.35;;;8.85;;
64297;SDS011;50639;53.270;7.956;2022-12-24T01:24:55;14.57;;;8.90;;
64297;SDS011;50639;53.270;7.956;2022-12-24T01:27:20;13.18;;;8.90;;
64297;SDS011;50639;53.270;7.956;2022-12-24T01:29:46;12.27;;;8.43;;
64297;SDS011;50639;53.270;7.956;2022-12-24T01:32:11;16.80;;;9.63;;
64297;SDS011;50639;53.270;7.956;2022-12-24T01:34:36;12.57;;;8.07;;
64297;SDS011;50639;53.270;7.956;2022-12-24T01:37:02;11.63;;;7.93;;
64297;SDS011;50639;53.270;7.956;2022-12-24T01:39:27;13.60;;;8.60;;
64297;SDS011;50639;53.270;7.956;2022-12-24T01:41:53;13.63;;;8.40;;
64297;SDS011;50639;53.270;7.956;2022-12-24T01:44:40;13.48;;;8.18;;
64297;SDS011;50639;53.270;7.956;2022-12-24T01:47:12;13.50;;;8.02;;
64297;SDS011;50639;53.270;7.956;2022-12-24T01:49:40;10.52;;;7.88;;
64297;SDS011;50639;53.270;7.956;2022-12-24T01:52:08;12.07;;;7.95;;
64297;SDS011;50639;53.270;7.956;2022-12-24T01:54:36;12.98;;;8.60;;
64297;SDS011;50639;53.270;7.956;2022-12-24T01:57:04;12.15;;;8.50;;
64297;SDS011;50639;53.270;7.956;2022-12-24T01:59:31;12.57;;;7.78;;
64297;SDS011;50639;53.270;7.956;2022-12-24T02:01:56;12.45;;;8.40;;
64297;SDS011;50639;53.270;7.956;2022-12-24T02:04:33;10.55;;;7.70;;
64297;SDS011;50639;53.270;7.956;2022-12-24T02:07:00;10.23;;;7.63;;
64297;SDS011;50639;53.270;7.956;2022-12-24T02:09:25;10.98;;;7.32;;
64297;SDS011;50639;53.270;7.956;2022-12-24T02:11:51;11.13;;;7.53;;
64297;SDS011;50639;53.270;7.956;2022-12-24T02:14:16;11.50;;;8.13;;
64297;SDS011;50639;53.270;7.956;2022-12-24T02:24:15;11.17;;;6.77;;
64297;SDS011;50639;53.270;7.956;2022-12-24T02:29:49;10.23;;;7.30;;
64297;SDS011;50639;53.270;7.956;2022-12-24T02:34:46;10.00;;;7.35;;
64297;SDS011;50639;53.270;7.956;2022-12-24T02:37:16;10.40;;;7.10;;
64297;SDS011;50639;53.270;7.956;2022-12-24T02:39:48;10.32;;;7.20;;
64297;SDS011;50639;53.270;7.956;2022-12-24T02:42:16;9.57;;;6.85;;
64297;SDS011;50639;53.270;7.956;2022-12-24T02:44:50;9.68;;;6.72;;
64297;SDS011;50639;53.270;7.956;2022-12-24T02:47:17;9.65;;;6.82;;
64297;SDS011;50639;53.270;7.956;2022-12-24T02:49:44;8.50;;;6.85;;
64297;SDS011;50639;53.270;7.956;2022-12-24T02:54:53;11.10;;;7.57;;
64297;SDS011;50639;53.270;7.956;2022-12-24T03:00:02;12.52;;;8.80;;
64297;SDS011;50639;53.270;7.956;2022-12-24T03:05:17;10.23;;;7.40;;
64297;SDS011;50639;53.270;7.956;2022-12-24T03:07:46;11.63;;;7.95;;
64297;SDS011;50639;53.270;7.956;2022-12-24T03:10:17;10.25;;;7.30;;
64297;SDS011;50639;53.270;7.956;2022-12-24T03:12:48;10.52;;;7.45;;
64297;SDS011;50639;53.270;7.956;2022-12-24T03:15:15;9.50;;;7.10;;
64297;SDS011;50639;53.270;7.956;2022-12-24T03:17:42;10.63;;;8.00;;
64297;SDS011;50639;53.270;7.956;2022-12-24T03:20:09;10.23;;;7.70;;
64297;SDS011;50639;53.270;7.956;2022-12-24T03:22:35;10.27;;;7.55;;
64297;SDS011;50639;53.270;7.956;2022-12-24T03:25:01;10.07;;;7.43;;
64297;SDS011;50639;53.270;7.956;2022-12-24T03:27:28;10.68;;;8.13;;
64297;SDS011;50639;53.270;7.956;2022-12-24T03:29:54;10.65;;;7.80;;
64297;SDS011;50639;53.270;7.956;2022-12-24T03:32:23;12.07;;;8.40;;
64297;SDS011;50639;53.270;7.956;2022-12-24T03:34:48;11.93;;;9.90;;
64297;SDS011;50639;53.270;7.956;2022-12-24T03:37:14;12.43;;;9.85;;
64297;SDS011;50639;53.270;7.956;2022-12-24T03:39:39;11.18;;;8.85;;
64297;SDS011;50639;53.270;7.956;2022-12-24T03:42:04;12.02;;;9.52;;
64297;SDS011;50639;53.270;7.956;2022-12-24T03:44:30;14.35;;;9.77;;
64297;SDS011;50639;53.270;7.956;2022-12-24T03:46:55;12.95;;;10.02;;
64297;SDS011;50639;53.270;7.956;2022-12-24T03:49:20;12.77;;;9.70;;
64297;SDS011;50639;53.270;7.956;2022-12-24T03:51:46;12.68;;;9.82;;
64297;SDS011;50639;53.270;7.956;2022-12-24T03:54:12;12.95;;;9.68;;
64297;SDS011;50639;53.270;7.956;2022-12-24T03:56:38;12.32;;;9.40;;
64297;SDS011;50639;53.270;7.956;2022-12-24T03:59:04;12.48;;;10.30;;
64297;SDS011;50639;53.270;7.956;2022-12-24T04:01:29;13.02;;;10.05;;
64297;SDS011;50639;53.270;7.956;2022-12-24T04:03:54;11.85;;;9.60;;
64297;SDS011;50639;53.270;7.956;2022-12-24T04:06:20;13.23;;;10.95;;
64297;SDS011;50639;53.270;7.956;2022-12-24T04:08:46;14.02;;;9.82;;
64297;SDS011;50639;53.270;7.956;2022-12-24T04:11:12;14.98;;;10.98;;
64297;SDS011;50639;53.270;7.956;2022-12-24T04:13:38;15.60;;;10.75;;
64297;SDS011;50639;53.270;7.956;2022-12-24T04:16:10;14.82;;;10.88;;
64297;SDS011;50639;53.270;7.956;2022-12-24T04:18:36;13.15;;;10.32;;
64297;SDS011;50639;53.270;7.956;2022-12-24T04:21:02;13.40;;;10.57;;
64297;SDS011;50639;53.270;7.956;2022-12-24T04:23:31;12.23;;;10.23;;
64297;SDS011;50639;53.270;7.956;2022-12-24T04:26:00;12.43;;;10.40;;
64297;SDS011;50639;53.270;7.956;2022-12-24T04:28:27;12.38;;;10.52;;
64297;SDS011;50639;53.270;7.956;2022-12-24T04:30:56;12.10;;;10.23;;
64297;SDS011;50639;53.270;7.956;2022-12-24T04:33:22;12.93;;;10.05;;
64297;SDS011;50639;53.270;7.956;2022-12-24T04:35:47;13.23;;;10.77;;
64297;SDS011;50639;53.270;7.956;2022-12-24T04:38:12;14.88;;;10.48;;
64297;SDS011;50639;53.270;7.956;2022-12-24T04:40:38;13.70;;;9.90;;
64297;SDS011;50639;53.270;7.956;2022-12-24T04:43:03;14.60;;;11.48;;
64297;SDS011;50639;53.270;7.956;2022-12-24T04:45:29;14.32;;;10.15;;
64297;SDS011;50639;53.270;7.956;2022-12-24T04:47:55;13.95;;;11.02;;
64297;SDS011;50639;53.270;7.956;2022-12-24T04:50:20;15.93;;;11.48;;
64297;SDS011;50639;53.270;7.956;2022-12-24T04:52:46;14.15;;;11.02;;
64297;SDS011;50639;53.270;7.956;2022-12-24T04:55:11;14.23;;;11.63;;
64297;SDS011;50639;53.270;7.956;2022-12-24T04:57:36;16.13;;;11.45;;
64297;SDS011;50639;53.270;7.956;2022-12-24T05:00:03;15.18;;;11.85;;
64297;SDS011;50639;53.270;7.956;2022-12-24T05:02:29;18.60;;;12.77;;
64297;SDS011;50639;53.270;7.956;2022-12-24T05:04:54;19.40;;;13.75;;
64297;SDS011;50639;53.270;7.956;2022-12-24T05:07:20;21.67;;;15.15;;
64297;SDS011;50639;53.270;7.956;2022-12-24T05:09:45;23.70;;;15.82;;
64297;SDS011;50639;53.270;7.956;2022-12-24T05:12:10;24.38;;;16.38;;
64297;SDS011;50639;53.270;7.956;2022-12-24T05:14:36;28.85;;;16.98;;
64297;SDS011;50639;53.270;7.956;2022-12-24T05:17:01;23.77;;;16.95;;
64297;SDS011;50639;53.270;7.956;2022-12-24T05:19:26;25.70;;;18.35;;
64297;SDS011;50639;53.270;7.956;2022-12-24T05:21:52;28.25;;;18.55;;
64297;SDS011;50639;53.270;7.956;2022-12-24T05:24:36;28.33;;;18.48;;
64297;SDS011;50639;53.270;7.956;2022-12-24T05:27:20;27.05;;;17.95;;
64297;SDS011;50639;53.270;7.956;2022-12-24T05:29:45;29.95;;;18.58;;
64297;SDS011;50639;53.270;7.956;2022-12-24T05:32:11;31.00;;;19.98;;
64297;SDS011;50639;53.270;7.956;2022-12-24T05:34:36;28.92;;;19.55;;
64297;SDS011;50639;53.270;7.956;2022-12-24T05:37:01;32.83;;;20.85;;
64297;SDS011;50639;53.270;7.956;2022-12-24T05:39:27;36.03;;;20.40;;
64297;SDS011;50639;53.270;7.956;2022-12-24T05:41:52;29.50;;;19.60;;
64297;SDS011;50639;53.270;7.956;2022-12-24T05:44:17;37.33;;;21.80;;
64297;SDS011;50639;53.270;7.956;2022-12-24T05:46:43;31.63;;;20.63;;
64297;SDS011;50639;53.270;7.956;2022-12-24T05:49:08;34.58;;;20.63;;
64297;SDS011;50639;53.270;7.956;2022-12-24T05:51:34;34.33;;;21.15;;
64297;SDS011;50639;53.270;7.956;2022-12-24T05:53:59;33.33;;;20.42;;
64297;SDS011;50639;53.270;7.956;2022-12-24T05:56:25;38.40;;;21.27;;
64297;SDS011;50639;53.270;7.956;2022-12-24T05:58:50;32.40;;;21.30;;
64297;SDS011;50639;53.270;7.956;2022-12-24T06:01:16;33.05;;;20.35;;
64297;SDS011;50639;53.270;7.956;2022-12-24T06:03:41;30.60;;;19.50;;
64297;SDS011;50639;53.270;7.956;2022-12-24T06:06:08;33.08;;;20.17;;
64297;SDS011;50639;53.270;7.956;2022-12-24T06:08:34;33.17;;;19.90;;
64297;SDS011;50639;53.270;7.956;2022-12-24T06:11:02;33.15;;;20.70;;
64297;SDS011;50639;53.270;7.956;2022-12-24T06:13:27;32.38;;;20.05;;
64297;SDS011;50639;53.270;7.956;2022-12-24T06:15:53;30.98;;;20.52;;
64297;SDS011;50639;53.270;7.956;2022-12-24T06:18:19;34.03;;;19.83;;
64297;SDS011;50639;53.270;7.956;2022-12-24T06:20:45;30.23;;;18.25;;
64297;SDS011;50639;53.270;7.956;2022-12-24T06:23:13;31.23;;;18.85;;
64297;SDS011;50639;53.270;7.956;2022-12-24T06:25:39;28.88;;;17.38;;
64297;SDS011;50639;53.270;7.956;2022-12-24T06:28:04;31.65;;;17.42;;
64297;SDS011;50639;53.270;7.956;2022-12-24T06:30:29;28.52;;;17.88;;
64297;SDS011;50639;53.270;7.956;2022-12-24T06:32:55;40.70;;;18.27;;
64297;SDS011;50639;53.270;7.956;2022-12-24T06:35:20;32.63;;;16.58;;
64297;SDS011;50639;53.270;7.956;2022-12-24T06:37:46;33.53;;;17.52;;
64297;SDS011;50639;53.270;7.956;2022-12-24T06:40:12;31.67;;;16.37;;
64297;SDS011;50639;53.270;7.956;2022-12-24T06:42:37;37.50;;;16.75;;
64297;SDS011;50639;53.270;7.956;2022-12-24T06:45:03;25.75;;;14.50;;
64297;SDS011;50639;53.270;7.956;2022-12-24T06:47:28;34.42;;;14.35;;
64297;SDS011;50639;53.270;7.956;2022-12-24T06:49:53;34.58;;;14.15;;
64297;SDS011;50639;53.270;7.956;2022-12-24T06:52:19;32.97;;;12.40;;
64297;SDS011;50639;53.270;7.956;2022-12-24T06:54:44;38.70;;;12.27;;
64297;SDS011;50639;53.270;7.956;2022-12-24T06:57:09;30.27;;;10.63;;
64297;SDS011;50639;53.270;7.956;2022-12-24T06:59:35;44.20;;;10.38;;
64297;SDS011;50639;53.270;7.956;2022-12-24T07:02:00;40.00;;;9.68;;
64297;SDS011;50639;53.270;7.956;2022-12-24T07:04:26;41.72;;;9.63;;
64297;SDS011;50639;53.270;7.956;2022-12-24T07:06:51;40.67;;;8.73;;
64297;SDS011;50639;53.270;7.956;2022-12-24T07:09:16;35.30;;;9.23;;
64297;SDS011;50639;53.270;7.956;2022-12-24T07:11:42;38.35;;;8.90;;
64297;SDS011;50639;53.270;7.956;2022-12-24T07:14:07;33.72;;;7.88;;
64297;SDS011;50639;53.270;7.956;2022-12-24T07:16:32;33.67;;;8.27;;
64297;SDS011;50639;53.270;7.956;2022-12-24T07:18:58;36.05;;;7.22;;
64297;SDS011;50639;53.270;7.956;2022-12-24T07:21:23;42.23;;;6.83;;
64297;SDS011;50639;53.270;7.956;2022-12-24T07:23:48;47.70;;;7.90;;
64297;SDS011;50639;53.270;7.956;2022-12-24T07:26:14;44.28;;;7.20;;
64297;SDS011;50639;53.270;7.956;2022-12-24T07:28:39;38.92;;;6.65;;
64297;SDS011;50639;53.270;7.956;2022-12-24T07:31:04;39.97;;;7.13;;
64297;SDS011;50639;53.270;7.956;2022-12-24T07:33:30;42.40;;;7.53;;
64297;SDS011;50639;53.270;7.956;2022-12-24T07:38:24;36.78;;;6.55;;
64297;SDS011;50639;53.270;7.956;2022-12-24T07:40:49;44.15;;;7.53;;
64297;SDS011;50639;53.270;7.956;2022-12-24T07:43:15;44.33;;;7.75;;
64297;SDS011;50639;53.270;7.956;2022-12-24T07:45:40;43.30;;;7.27;;
64297;SDS011;50639;53.270;7.956;2022-12-24T07:48:05;43.35;;;7.60;;
64297;SDS011;50639;53.270;7.956;2022-12-24T07:50:30;42.63;;;8.40;;
64297;SDS011;50639;53.270;7.956;2022-12-24T07:52:56;46.38;;;7.00;;
64297;SDS011;50639;53.270;7.956;2022-12-24T07:55:21;51.35;;;6.75;;
64297;SDS011;50639;53.270;7.956;2022-12-24T07:57:46;36.75;;;6.60;;
64297;SDS011;50639;53.270;7.956;2022-12-24T08:00:12;42.80;;;6.82;;
64297;SDS011;50639;53.270;7.956;2022-12-24T08:02:37;42.88;;;7.65;;
64297;SDS011;50639;53.270;7.956;2022-12-24T08:05:03;58.42;;;6.93;;
64297;SDS011;50639;53.270;7.956;2022-12-24T08:07:28;53.13;;;8.20;;
64297;SDS011;50639;53.270;7.956;2022-12-24T08:09:53;44.50;;;7.90;;
64297;SDS011;50639;53.270;7.956;2022-12-24T08:12:19;39.38;;;6.65;;
64297;SDS011;50639;53.270;7.956;2022-12-24T08:14:44;38.30;;;7.18;;
64297;SDS011;50639;53.270;7.956;2022-12-24T08:17:09;54.42;;;7.70;;
64297;SDS011;50639;53.270;7.956;2022-12-24T08:19:35;42.78;;;7.25;;
64297;SDS011;50639;53.270;7.956;2022-12-24T08:22:00;55.78;;;7.63;;
64297;SDS011;50639;53.270;7.956;2022-12-24T08:24:25;56.57;;;8.60;;
64297;SDS011;50639;53.270;7.956;2022-12-24T08:26:51;53.08;;;8.55;;
64297;SDS011;50639;53.270;7.956;2022-12-24T08:29:16;55.90;;;8.88;;
64297;SDS011;50639;53.270;7.956;2022-12-24T08:31:41;45.25;;;7.18;;
64297;SDS011;50639;53.270;7.956;2022-12-24T08:34:07;42.63;;;7.17;;
64297;SDS011;50639;53.270;7.956;2022-12-24T08:36:33;51.60;;;7.70;;
64297;SDS011;50639;53.270;7.956;2022-12-24T08:38:59;56.95;;;8.18;;
64297;SDS011;50639;53.270;7.956;2022-12-24T08:41:28;55.40;;;8.00;;
64297;SDS011;50639;53.270;7.956;2022-12-24T08:43:54;53.50;;;8.55;;
64297;SDS011;50639;53.270;7.956;2022-12-24T08:46:19;46.28;;;6.72;;
64297;SDS011;50639;53.270;7.956;2022-12-24T08:48:44;50.55;;;7.97;;
64297;SDS011;50639;53.270;7.956;2022-12-24T08:51:10;50.70;;;8.05;;
64297;SDS011;50639;53.270;7.956;2022-12-24T08:53:36;57.83;;;8.50;;
64297;SDS011;50639;53.270;7.956;2022-12-24T08:56:02;46.30;;;7.25;;
64297;SDS011;50639;53.270;7.956;2022-12-24T08:58:28;42.15;;;7.30;;
64297;SDS011;50639;53.270;7.956;2022-12-24T09:00:53;41.45;;;7.25;;
64297;SDS011;50639;53.270;7.956;2022-12-24T09:03:19;43.35;;;7.40;;
64297;SDS011;50639;53.270;7.956;2022-12-24T09:05:44;44.65;;;7.65;;
64297;SDS011;50639;53.270;7.956;2022-12-24T09:08:09;47.55;;;8.52;;
64297;SDS011;50639;53.270;7.956;2022-12-24T09:10:34;36.45;;;7.25;;
64297;SDS011;50639;53.270;7.956;2022-12-24T09:13:00;54.93;;;8.27;;
64297;SDS011;50639;53.270;7.956;2022-12-24T09:15:25;44.60;;;8.13;;
64297;SDS011;50639;53.270;7.956;2022-12-24T09:17:51;42.10;;;6.83;;
64297;SDS011;50639;53.270;7.956;2022-12-24T09:20:16;35.67;;;6.85;;
64297;SDS011;50639;53.270;7.956;2022-12-24T09:22:41;40.60;;;6.78;;
64297;SDS011;50639;53.270;7.956;2022-12-24T09:25:07;33.60;;;6.65;;
64297;SDS011;50639;53.270;7.956;2022-12-24T09:27:34;37.60;;;8.15;;
64297;SDS011;50639;53.270;7.956;2022-12-24T09:30:00;45.10;;;7.55;;
64297;SDS011;50639;53.270;7.956;2022-12-24T09:32:25;42.63;;;7.57;;
64297;SDS011;50639;53.270;7.956;2022-12-24T09:34:50;37.22;;;6.25;;
64297;SDS011;50639;53.270;7.956;2022-12-24T09:37:15;45.88;;;7.30;;
64297;SDS011;50639;53.270;7.956;2022-12-24T09:39:41;34.03;;;6.93;;
64297;SDS011;50639;53.270;7.956;2022-12-24T09:44:50;42.25;;;6.78;;
64297;SDS011;50639;53.270;7.956;2022-12-24T09:49:44;40.33;;;7.20;;
64297;SDS011;50639;53.270;7.956;2022-12-24T09:52:12;53.53;;;8.52;;
64297;SDS011;50639;53.270;7.956;2022-12-24T09:54:43;38.38;;;7.85;;
64297;SDS011;50639;53.270;7.956;2022-12-24T09:57:24;37.20;;;7.70;;
64297;SDS011;50639;53.270;7.956;2022-12-24T09:59:50;37.53;;;7.40;;
64297;SDS011;50639;53.270;7.956;2022-12-24T10:02:16;37.05;;;6.80;;
64297;SDS011;50639;53.270;7.956;2022-12-24T10:04:42;44.30;;;8.38;;
64297;SDS011;50639;53.270;7.956;2022-12-24T10:12:13;39.25;;;6.63;;
64297;SDS011;50639;53.270;7.956;2022-12-24T10:14:52;37.42;;;7.88;;
64297;SDS011;50639;53.270;7.956;2022-12-24T10:19:53;46.58;;;10.07;;
64297;SDS011;50639;53.270;7.956;2022-12-24T10:22:33;36.47;;;6.22;;
64297;SDS011;50639;53.270;7.956;2022-12-24T10:25:03;27.83;;;5.82;;
64297;SDS011;50639;53.270;7.956;2022-12-24T10:27:33;35.45;;;7.35;;
64297;SDS011;50639;53.270;7.956;2022-12-24T10:30:11;41.92;;;7.32;;
64297;SDS011;50639;53.270;7.956;2022-12-24T10:32:38;35.10;;;7.78;;
64297;SDS011;50639;53.270;7.956;2022-12-24T10:37:38;37.45;;;6.88;;
64297;SDS011;50639;53.270;7.956;2022-12-24T10:40:04;34.08;;;6.88;;
64297;SDS011;50639;53.270;7.956;2022-12-24T10:42:40;36.80;;;6.93;;
64297;SDS011;50639;53.270;7.956;2022-12-24T10:45:19;35.45;;;7.15;;
64297;SDS011;50639;53.270;7.956;2022-12-24T10:47:47;36.75;;;6.68;;
64297;SDS011;50639;53.270;7.956;2022-12-24T10:52:39;35.05;;;6.60;;
64297;SDS011;50639;53.270;7.956;2022-12-24T10:55:07;29.83;;;6.82;;
64297;SDS011;50639;53.270;7.956;2022-12-24T10:57:33;37.28;;;7.05;;
64297;SDS011;50639;53.270;7.956;2022-12-24T10:59:58;31.70;;;6.65;;
64297;SDS011;50639;53.270;7.956;2022-12-24T11:02:35;37.92;;;7.07;;
64297;SDS011;50639;53.270;7.956;2022-12-24T11:05:02;29.58;;;5.97;;
64297;SDS011;50639;53.270;7.956;2022-12-24T11:07:28;33.08;;;6.88;;
64297;SDS011;50639;53.270;7.956;2022-12-24T11:12:21;36.70;;;7.33;;
64297;SDS011;50639;53.270;7.956;2022-12-24T11:14:47;37.45;;;7.00;;
64297;SDS011;50639;53.270;7.956;2022-12-24T11:17:21;38.05;;;7.15;;
64297;SDS011;50639;53.270;7.956;2022-12-24T11:19:48;36.15;;;8.50;;
64297;SDS011;50639;53.270;7.956;2022-12-24T11:22:18;38.63;;;7.88;;
64297;SDS011;50639;53.270;7.956;2022-12-24T11:24:56;33.63;;;7.10;;
64297;SDS011;50639;53.270;7.956;2022-12-24T11:29:48;24.73;;;6.40;;
64297;SDS011;50639;53.270;7.956;2022-12-24T11:32:18;37.80;;;7.25;;
64297;SDS011;50639;53.270;7.956;2022-12-24T11:34:43;36.80;;;7.43;;
64297;SDS011;50639;53.270;7.956;2022-12-24T11:37:15;37.55;;;6.47;;
64297;SDS011;50639;53.270;7.956;2022-12-24T11:39:43;41.50;;;8.68;;
64297;SDS011;50639;53.270;7.956;2022-12-24T11:42:21;26.15;;;6.57;;
64297;SDS011;50639;53.270;7.956;2022-12-24T11:44:48;39.78;;;6.68;;
64297;SDS011;50639;53.270;7.956;2022-12-24T11:47:14;40.35;;;6.93;;
64297;SDS011;50639;53.270;7.956;2022-12-24T11:49:39;42.55;;;6.97;;
64297;SDS011;50639;53.270;7.956;2022-12-24T11:57:07;35.75;;;6.18;;
64297;SDS011;50639;53.270;7.956;2022-12-24T11:59:35;41.25;;;9.18;;
64297;SDS011;50639;53.270;7.956;2022-12-24T12:04:48;38.47;;;6.65;;
64297;SDS011;50639;53.270;7.956;2022-12-24T12:07:16;34.95;;;6.55;;
64297;SDS011;50639;53.270;7.956;2022-12-24T12:12:12;36.17;;;7.15;;
64297;SDS011;50639;53.270;7.956;2022-12-24T12:14:40;33.10;;;7.20;;
64297;SDS011;50639;53.270;7.956;2022-12-24T12:19:38;29.63;;;7.53;;
64297;SDS011;50639;53.270;7.956;2022-12-24T12:22:08;44.90;;;8.00;;
64297;SDS011;50639;53.270;7.956;2022-12-24T12:24:35;26.75;;;6.10;;
64297;SDS011;50639;53.270;7.956;2022-12-24T12:27:11;28.73;;;6.20;;
64297;SDS011;50639;53.270;7.956;2022-12-24T12:29:44;29.85;;;5.90;;
64297;SDS011;50639;53.270;7.956;2022-12-24T12:32:12;28.45;;;6.20;;
64297;SDS011;50639;53.270;7.956;2022-12-24T12:34:50;32.65;;;6.78;;
64297;SDS011;50639;53.270;7.956;2022-12-24T12:37:20;28.70;;;6.88;;
64297;SDS011;50639;53.270;7.956;2022-12-24T12:39:48;28.20;;;6.60;;
64297;SDS011;50639;53.270;7.956;2022-12-24T12:44:48;25.05;;;6.22;;
64297;SDS011;50639;53.270;7.956;2022-12-24T12:57:43;25.90;;;5.18;;
64297;SDS011;50639;53.270;7.956;2022-12-24T13:00:11;23.42;;;5.82;;
64297;SDS011;50639;53.270;7.956;2022-12-24T13:02:59;29.77;;;5.77;;
64297;SDS011;50639;53.270;7.956;2022-12-24T13:10:51;22.23;;;5.10;;
64297;SDS011;50639;53.270;7.956;2022-12-24T13:20:55;27.30;;;6.18;;
64297;SDS011;50639;53.270;7.956;2022-12-24T13:23:21;19.45;;;5.20;;
64297;SDS011;50639;53.270;7.956;2022-12-24T13:25:54;23.15;;;4.60;;
64297;SDS011;50639;53.270;7.956;2022-12-24T13:35:59;21.63;;;4.57;;
64297;SDS011;50639;53.270;7.956;2022-12-24T13:40:53;23.40;;;5.65;;
64297;SDS011;50639;53.270;7.956;2022-12-24T13:43:18;24.65;;;4.50;;
64297;SDS011;50639;53.270;7.956;2022-12-24T13:45:48;25.98;;;5.43;;
64297;SDS011;50639;53.270;7.956;2022-12-24T13:48:17;21.52;;;4.53;;
64297;SDS011;50639;53.270;7.956;2022-12-24T13:50:51;29.90;;;6.05;;
64297;SDS011;50639;53.270;7.956;2022-12-24T13:53:20;25.73;;;4.93;;
64297;SDS011;50639;53.270;7.956;2022-12-24T13:55:50;25.52;;;5.63;;
64297;SDS011;50639;53.270;7.956;2022-12-24T13:58:19;26.80;;;5.75;;
64297;SDS011;50639;53.270;7.956;2022-12-24T14:00:51;22.13;;;5.47;;
64297;SDS011;50639;53.270;7.956;2022-12-24T14:05:49;26.10;;;5.28;;
64297;SDS011;50639;53.270;7.956;2022-12-24T14:08:25;25.25;;;4.78;;
64297;SDS011;50639;53.270;7.956;2022-12-24T14:11:08;21.20;;;4.72;;
64297;SDS011;50639;53.270;7.956;2022-12-24T14:16:03;20.10;;;4.57;;
64297;SDS011;50639;53.270;7.956;2022-12-24T14:18:37;19.48;;;4.13;;
64297;SDS011;50639;53.270;7.956;2022-12-24T14:21:03;28.98;;;4.95;;
64297;SDS011;50639;53.270;7.956;2022-12-24T14:23:34;17.50;;;4.70;;
64297;SDS011;50639;53.270;7.956;2022-12-24T14:26:01;19.02;;;4.47;;
64297;SDS011;50639;53.270;7.956;2022-12-24T14:28:33;20.67;;;5.20;;
64297;SDS011;50639;53.270;7.956;2022-12-24T14:31:00;32.97;;;5.70;;
64297;SDS011;50639;53.270;7.956;2022-12-24T14:33:33;22.15;;;4.53;;
64297;SDS011;50639;53.270;7.956;2022-12-24T14:35:58;19.35;;;5.03;;
64297;SDS011;50639;53.270;7.956;2022-12-24T14:38:24;25.13;;;4.53;;
64297;SDS011;50639;53.270;7.956;2022-12-24T14:43:27;27.42;;;5.85;;
64297;SDS011;50639;53.270;7.956;2022-12-24T14:46:11;20.67;;;4.90;;
64297;SDS011;50639;53.270;7.956;2022-12-24T14:48:58;26.30;;;6.13;;
64297;SDS011;50639;53.270;7.956;2022-12-24T14:56:45;28.08;;;5.55;;
64297;SDS011;50639;53.270;7.956;2022-12-24T14:59:14;29.63;;;5.88;;
64297;SDS011;50639;53.270;7.956;2022-12-24T15:01:40;28.40;;;5.05;;
64297;SDS011;50639;53.270;7.956;2022-12-24T15:06:37;23.75;;;4.80;;
64297;SDS011;50639;53.270;7.956;2022-12-24T15:09:04;27.05;;;5.32;;
64297;SDS011;50639;53.270;7.956;2022-12-24T15:11:30;27.88;;;6.35;;
64297;SDS011;50639;53.270;7.956;2022-12-24T15:13:56;23.25;;;5.10;;
64297;SDS011;50639;53.270;7.956;2022-12-24T15:16:24;25.53;;;5.70;;
64297;SDS011;50639;53.270;7.956;2022-12-24T15:18:51;30.52;;;5.18;;
64297;SDS011;50639;53.270;7.956;2022-12-24T15:21:28;22.67;;;4.95;;
64297;SDS011;50639;53.270;7.956;2022-12-24T15:23:54;22.30;;;4.65;;
64297;SDS011;50639;53.270;7.956;2022-12-24T15:28:48;23.73;;;4.70;;
64297;SDS011;50639;53.270;7.956;2022-12-24T15:31:16;29.92;;;5.10;;
64297;SDS011;50639;53.270;7.956;2022-12-24T15:33:45;23.23;;;4.03;;
64297;SDS011;50639;53.270;7.956;2022-12-24T15:36:10;28.08;;;5.60;;
64297;SDS011;50639;53.270;7.956;2022-12-24T15:38:37;21.40;;;5.03;;
64297;SDS011;50639;53.270;7.956;2022-12-24T15:41:07;26.00;;;4.85;;
64297;SDS011;50639;53.270;7.956;2022-12-24T15:43:39;22.58;;;5.03;;
64297;SDS011;50639;53.270;7.956;2022-12-24T15:46:04;29.13;;;5.18;;
64297;SDS011;50639;53.270;7.956;2022-12-24T15:48:30;20.70;;;4.15;;
64297;SDS011;50639;53.270;7.956;2022-12-24T15:50:57;21.83;;;5.20;;
64297;SDS011;50639;53.270;7.956;2022-12-24T15:53:26;20.95;;;4.80;;
64297;SDS011;50639;53.270;7.956;2022-12-24T15:56:00;24.35;;;5.18;;
64297;SDS011;50639;53.270;7.956;2022-12-24T15:58:37;31.75;;;6.20;;
64297;SDS011;50639;53.270;7.956;2022-12-24T16:03:38;20.10;;;5.05;;
64297;SDS011;50639;53.270;7.956;2022-12-24T16:06:07;24.63;;;4.43;;
64297;SDS011;50639;53.270;7.956;2022-12-24T16:08:34;23.27;;;5.43;;
64297;SDS011;50639;53.270;7.956;2022-12-24T16:11:19;27.92;;;5.18;;
64297;SDS011;50639;53.270;7.956;2022-12-24T16:16:14;23.10;;;4.57;;
64297;SDS011;50639;53.270;7.956;2022-12-24T16:18:54;27.70;;;4.78;;
64297;SDS011;50639;53.270;7.956;2022-12-24T16:21:23;24.27;;;4.97;;
64297;SDS011;50639;53.270;7.956;2022-12-24T16:23:49;20.20;;;4.38;;
64297;SDS011;50639;53.270;7.956;2022-12-24T16:26:16;25.23;;;4.88;;
64297;SDS011;50639;53.270;7.956;2022-12-24T16:28:41;24.40;;;4.68;;
64297;SDS011;50639;53.270;7.956;2022-12-24T16:31:07;26.67;;;5.07;;
64297;SDS011;50639;53.270;7.956;2022-12-24T16:33:35;24.20;;;4.72;;